createdAt,value
2022-12-08T00:02:11.789Z,100.00
2022-12-08T00:05:33.322Z,100.00
2022-12-08T00:08:54.500Z,100.00
2022-12-08T00:12:11.755Z,100.00
2022-12-08T00:15:14.489Z,100.00
2022-12-08T00:18:16.896Z,100.00
2022-12-08T00:21:19.727Z,100.00
2022-12-08T00:24:23.842Z,100.00
2022-12-08T00:27:26.699Z,100.00
2022-12-08T00:30:29.096Z,100.00
2022-12-08T00:33:31.770Z,100.00
2022-12-08T00:36:34.647Z,100.00
2022-12-08T00:39:37.360Z,100.00
2022-12-08T00:42:39.753Z,100.00
2022-12-08T00:45:43.585Z,100.00
2022-12-08T00:48:45.995Z,100.00
2022-12-08T00:51:48.847Z,100.00
2022-12-08T00:54:51.183Z,100.00
2022-12-08T00:57:54.011Z,100.00
2022-12-08T01:00:56.546Z,100.00
2022-12-08T01:04:03.784Z,100.00
2022-12-08T01:07:06.168Z,100.00
2022-12-08T01:10:09.312Z,100.00
2022-12-08T01:13:12.025Z,100.00
2022-12-08T01:16:44.318Z,100.00
2022-12-08T01:19:46.756Z,100.00
2022-12-08T01:22:49.466Z,100.00
2022-12-08T01:25:51.872Z,100.00
2022-12-08T01:28:54.699Z,100.00
2022-12-08T01:31:57.211Z,100.00
2022-12-08T01:34:59.885Z,100.00
2022-12-08T01:38:02.293Z,100.00
2022-12-08T01:41:05.062Z,100.00
2022-12-08T01:44:08.517Z,100.00
2022-12-08T01:47:12.016Z,100.00
2022-12-08T01:50:16.343Z,100.00
2022-12-08T01:53:24.067Z,100.00
2022-12-08T01:56:32.746Z,100.00
2022-12-08T01:59:42.067Z,100.00
2022-12-08T02:03:01.104Z,100.00
2022-12-08T02:06:04.561Z,100.00
2022-12-08T02:09:07.445Z,100.00
2022-12-08T02:12:10.535Z,100.00
2022-12-08T02:15:13.140Z,100.00
2022-12-08T02:18:31.452Z,100.00
2022-12-08T02:21:39.386Z,100.00
2022-12-08T02:24:45.118Z,100.00
2022-12-08T02:27:59.582Z,100.00
2022-12-08T02:31:36.477Z,100.00
2022-12-08T02:34:44.872Z,100.00
2022-12-08T02:37:55.133Z,100.00
2022-12-08T02:41:03.619Z,100.00
2022-12-08T02:44:49.884Z,100.00
2022-12-08T02:47:52.951Z,100.00
2022-12-08T02:50:55.814Z,100.00
2022-12-08T02:53:58.420Z,100.00
2022-12-08T02:57:14.080Z,100.00
2022-12-08T03:00:18.948Z,100.00
2022-12-08T03:03:36.522Z,100.00
2022-12-08T03:06:45.360Z,100.00
2022-12-08T03:09:53.096Z,100.00
2022-12-08T03:13:16.439Z,100.00
2022-12-08T03:16:24.702Z,100.00
2022-12-08T03:19:36.132Z,100.00
2022-12-08T03:22:41.083Z,100.00
2022-12-08T03:25:57.468Z,100.00
2022-12-08T03:29:00.380Z,100.00
2022-12-08T03:32:16.726Z,99.86
2022-12-08T03:35:26.350Z,100.00
2022-12-08T03:38:37.969Z,100.00
2022-12-08T03:41:40.730Z,100.00
2022-12-08T03:44:43.083Z,99.62
2022-12-08T03:47:45.795Z,100.00
2022-12-08T03:50:48.172Z,100.00
2022-12-08T03:53:51.227Z,100.00
2022-12-08T03:56:53.636Z,100.00
2022-12-08T03:59:56.290Z,100.00
2022-12-08T04:02:59.184Z,100.00
2022-12-08T04:06:01.998Z,99.55
2022-12-08T04:09:05.250Z,99.67
2022-12-08T04:12:09.124Z,100.00
2022-12-08T04:15:11.637Z,99.05
2022-12-08T04:18:15.135Z,99.50
2022-12-08T04:21:17.841Z,99.27
2022-12-08T04:24:20.603Z,98.42
2022-12-08T04:27:23.003Z,98.24
2022-12-08T04:30:25.819Z,97.90
2022-12-08T04:33:28.754Z,98.66
2022-12-08T04:36:31.464Z,98.61
2022-12-08T04:39:33.812Z,97.85
2022-12-08T04:42:36.686Z,98.34
2022-12-08T04:45:42.920Z,98.69
2022-12-08T04:48:45.982Z,99.08
2022-12-08T04:51:48.480Z,98.97
2022-12-08T04:54:51.247Z,98.02
2022-12-08T04:57:53.590Z,99.27
2022-12-08T05:00:56.365Z,98.88
2022-12-08T05:03:58.883Z,98.56
2022-12-08T05:07:01.647Z,99.24
2022-12-08T05:10:04.846Z,99.17
2022-12-08T05:13:07.885Z,98.55
2022-12-08T05:16:13.237Z,98.51
2022-12-08T05:19:16.686Z,99.08
2022-12-08T05:22:19.088Z,99.99
2022-12-08T05:25:21.751Z,99.52
2022-12-08T05:28:41.809Z,99.87
2022-12-08T05:31:45.013Z,99.85
2022-12-08T05:34:47.519Z,99.40
2022-12-08T05:37:50.282Z,98.56
2022-12-08T05:40:52.657Z,97.36
2022-12-08T05:43:55.423Z,97.15
2022-12-08T05:46:58.227Z,96.65
2022-12-08T05:50:01.235Z,96.41
2022-12-08T05:53:03.888Z,96.33
2022-12-08T05:56:06.861Z,96.14
2022-12-08T05:59:09.344Z,96.59
2022-12-08T06:02:12.203Z,96.08
2022-12-08T06:05:14.821Z,96.00
2022-12-08T06:08:17.934Z,95.53
2022-12-08T06:11:25.429Z,95.61
2022-12-08T06:14:28.733Z,95.47
2022-12-08T06:17:31.126Z,94.95
2022-12-08T06:20:34.595Z,94.54
2022-12-08T06:23:37.679Z,93.51
2022-12-08T06:26:41.669Z,93.21
2022-12-08T06:29:44.675Z,93.20
2022-12-08T06:32:47.401Z,93.32
2022-12-08T06:35:49.857Z,95.03
2022-12-08T06:38:52.895Z,94.86
2022-12-08T06:42:13.598Z,95.34
2022-12-08T06:45:17.607Z,95.66
2022-12-08T06:48:20.302Z,95.10
2022-12-08T06:51:23.693Z,95.55
2022-12-08T06:54:26.148Z,94.88
2022-12-08T06:57:29.024Z,93.94
2022-12-08T07:00:31.393Z,92.91
2022-12-08T07:03:34.217Z,93.04
2022-12-08T07:06:36.772Z,92.83
2022-12-08T07:09:39.516Z,92.96
2022-12-08T07:12:41.889Z,93.81
2022-12-08T07:15:44.662Z,93.52
2022-12-08T07:18:47.300Z,93.84
2022-12-08T07:21:50.226Z,94.10
2022-12-08T07:24:52.712Z,93.47
2022-12-08T07:27:55.690Z,92.83
2022-12-08T07:30:58.223Z,91.31
2022-12-08T07:34:01.060Z,90.61
2022-12-08T07:37:03.722Z,91.49
2022-12-08T07:40:08.063Z,91.48
2022-12-08T07:43:10.740Z,91.90
2022-12-08T07:46:19.281Z,92.24
2022-12-08T07:49:21.931Z,92.62
2022-12-08T07:52:24.824Z,91.57
2022-12-08T07:55:27.344Z,91.75
2022-12-08T07:58:30.057Z,91.89
2022-12-08T08:01:35.402Z,92.24
2022-12-08T08:04:38.327Z,91.65
2022-12-08T08:07:43.495Z,90.96
2022-12-08T08:10:47.176Z,91.70
2022-12-08T08:13:53.438Z,91.24
2022-12-08T08:16:56.541Z,91.37
2022-12-08T08:19:59.490Z,91.44
2022-12-08T08:23:02.391Z,91.02
2022-12-08T08:26:05.886Z,91.27
2022-12-08T08:29:08.745Z,90.56
2022-12-08T08:32:11.539Z,90.77
2022-12-08T08:35:14.260Z,91.30
2022-12-08T08:38:16.785Z,90.99
2022-12-08T08:41:19.722Z,90.76
2022-12-08T08:44:22.161Z,90.53
2022-12-08T08:47:24.960Z,91.07
2022-12-08T08:50:30.526Z,91.29
2022-12-08T08:53:37.526Z,91.79
2022-12-08T08:56:39.945Z,91.90
2022-12-08T08:59:42.739Z,92.57
2022-12-08T09:02:45.277Z,92.02
2022-12-08T09:05:48.564Z,91.86
2022-12-08T09:08:51.042Z,92.27
2022-12-08T09:11:55.474Z,91.96
2022-12-08T09:14:57.941Z,90.65
2022-12-08T09:18:00.900Z,91.34
2022-12-08T09:21:13.421Z,90.41
2022-12-08T09:24:16.790Z,89.16
2022-12-08T09:27:19.497Z,90.10
2022-12-08T09:30:22.345Z,89.72
2022-12-08T09:33:25.027Z,89.60
2022-12-08T09:36:27.920Z,89.44
2022-12-08T09:39:30.422Z,89.16
2022-12-08T09:42:39.148Z,89.54
2022-12-08T09:45:42.255Z,88.93
2022-12-08T09:48:58.894Z,89.54
2022-12-08T09:52:01.925Z,88.68
2022-12-08T09:55:12.949Z,88.93
2022-12-08T09:58:48.663Z,89.08
2022-12-08T10:01:52.967Z,90.11
2022-12-08T10:04:57.630Z,90.32
2022-12-08T10:08:08.960Z,89.45
2022-12-08T10:11:17.262Z,89.55
2022-12-08T10:14:36.549Z,87.63
2022-12-08T10:17:45.736Z,89.12
2022-12-08T10:20:50.522Z,90.34
2022-12-08T10:24:26.859Z,88.12
2022-12-08T10:27:30.042Z,88.47
2022-12-08T10:30:32.772Z,87.21
2022-12-08T10:33:35.523Z,86.50
2022-12-08T10:36:56.759Z,84.70
2022-12-08T10:40:09.749Z,85.43
2022-12-08T10:43:22.353Z,85.75
2022-12-08T10:46:27.554Z,86.92
2022-12-08T10:49:32.682Z,85.93
2022-12-08T10:52:39.673Z,87.46
2022-12-08T10:55:53.913Z,86.49
2022-12-08T10:59:15.137Z,86.90
2022-12-08T11:02:20.985Z,87.12
2022-12-08T11:05:28.047Z,88.08
2022-12-08T11:08:30.880Z,89.27
2022-12-08T11:11:49.972Z,89.48
2022-12-08T11:15:01.651Z,90.13
2022-12-08T11:18:10.747Z,89.09
2022-12-08T11:21:18.445Z,88.80
2022-12-08T11:24:30.212Z,87.74
2022-12-08T11:27:38.375Z,87.89
2022-12-08T11:30:48.530Z,87.25
2022-12-08T11:33:52.706Z,88.03
2022-12-08T11:36:56.289Z,88.99
2022-12-08T11:40:01.342Z,87.63
2022-12-08T11:43:26.867Z,88.62
2022-12-08T11:46:37.762Z,88.97
2022-12-08T11:49:42.742Z,89.53
2022-12-08T11:52:51.046Z,90.34
2022-12-08T11:55:58.814Z,90.08
2022-12-08T11:59:23.407Z,89.77
2022-12-08T12:02:32.602Z,89.92
2022-12-08T12:06:53.690Z,89.77
2022-12-08T12:10:14.184Z,90.45
2022-12-08T12:13:28.361Z,90.72
2022-12-08T12:16:50.828Z,90.51
2022-12-08T12:19:53.735Z,90.08
2022-12-08T12:23:19.114Z,91.11
2022-12-08T12:26:27.676Z,91.36
2022-12-08T12:29:34.406Z,91.59
2022-12-08T12:32:57.533Z,91.57
2022-12-08T12:36:04.650Z,92.04
2022-12-08T12:39:12.880Z,92.67
2022-12-08T12:42:45.948Z,92.40
2022-12-08T12:45:48.487Z,92.55
2022-12-08T12:48:52.412Z,92.56
2022-12-08T12:51:55.974Z,92.73
2022-12-08T12:54:58.756Z,93.01
2022-12-08T12:58:16.442Z,94.05
2022-12-08T13:01:22.282Z,94.17
2022-12-08T13:04:36.518Z,93.73
2022-12-08T13:07:59.254Z,93.65
2022-12-08T13:11:08.282Z,93.33
2022-12-08T13:14:35.459Z,93.50
2022-12-08T13:17:38.977Z,93.85
2022-12-08T13:20:45.964Z,94.44
2022-12-08T13:23:50.979Z,94.44
2022-12-08T13:27:05.980Z,95.48
2022-12-08T13:30:43.858Z,95.52
2022-12-08T13:33:47.435Z,95.48
2022-12-08T13:37:00.763Z,95.88
2022-12-08T13:40:15.025Z,97.00
2022-12-08T13:43:24.239Z,96.86
2022-12-08T13:51:23.722Z,96.57
2022-12-08T13:54:51.900Z,97.16
2022-12-08T13:57:32.810Z,97.42
2022-12-08T14:00:35.994Z,97.00
2022-12-08T14:07:19.879Z,97.62
2022-12-08T14:10:29.026Z,96.96
2022-12-08T14:13:32.488Z,97.53
2022-12-08T14:16:40.696Z,97.94
2022-12-08T14:19:46.253Z,98.08
2022-12-08T14:22:48.885Z,98.02
2022-12-08T14:25:51.723Z,98.50
2022-12-08T14:28:54.335Z,98.41
2022-12-08T14:31:58.121Z,98.94
2022-12-08T14:35:02.128Z,99.47
2022-12-08T14:38:16.628Z,99.49
2022-12-08T14:41:27.295Z,99.87
2022-12-08T14:44:32.493Z,100.00
2022-12-08T14:47:35.101Z,100.00
2022-12-08T14:50:41.097Z,99.89
2022-12-08T14:54:01.321Z,100.00
2022-12-08T14:57:04.515Z,100.00
2022-12-08T15:00:09.453Z,100.00
2022-12-08T15:03:13.769Z,100.00
2022-12-08T15:06:16.420Z,100.00
2022-12-08T15:09:46.264Z,100.00
2022-12-08T15:13:22.349Z,100.00
2022-12-08T15:16:39.581Z,100.00
2022-12-08T15:19:42.120Z,100.00
2022-12-08T15:22:45.058Z,99.88
2022-12-08T15:25:48.176Z,99.45
2022-12-08T15:28:51.083Z,99.45
2022-12-08T15:31:56.620Z,99.88
2022-12-08T15:34:59.540Z,99.56
2022-12-08T15:38:02.069Z,99.60
2022-12-08T15:41:08.066Z,99.15
2022-12-08T15:44:13.922Z,99.87
2022-12-08T15:47:19.223Z,100.00
2022-12-08T15:50:23.304Z,100.00
2022-12-08T15:53:26.509Z,100.00
2022-12-08T15:56:29.788Z,100.00
2022-12-08T15:59:32.646Z,100.00
2022-12-08T16:03:05.079Z,100.00
2022-12-08T16:06:50.841Z,100.00
2022-12-08T16:09:31.609Z,100.00
2022-12-08T16:16:21.637Z,100.00
2022-12-08T16:19:24.621Z,100.00
2022-12-08T16:26:20.262Z,100.00
2022-12-08T16:29:20.978Z,100.00
2022-12-08T16:32:24.196Z,100.00
2022-12-08T16:35:27.109Z,100.00
2022-12-08T16:38:30.398Z,100.00
2022-12-08T16:41:52.197Z,100.00
2022-12-08T16:44:55.240Z,100.00
2022-12-08T16:47:59.980Z,100.00
2022-12-08T16:51:04.827Z,100.00
2022-12-08T16:54:07.438Z,100.00
2022-12-08T16:57:12.801Z,100.00
2022-12-08T17:00:19.013Z,100.00
2022-12-08T17:03:22.362Z,100.00
2022-12-08T17:06:24.941Z,100.00
2022-12-08T17:09:28.845Z,100.00
2022-12-08T17:12:31.570Z,100.00
2022-12-08T17:15:34.854Z,100.00
2022-12-08T17:18:37.700Z,99.95
2022-12-08T17:21:41.174Z,100.00
2022-12-08T17:24:44.525Z,100.00
2022-12-08T17:27:47.541Z,99.58
2022-12-08T17:30:50.984Z,99.58
2022-12-08T17:33:54.328Z,99.73
2022-12-08T17:36:58.321Z,98.91
2022-12-08T17:40:01.409Z,99.25
2022-12-08T17:43:04.279Z,98.88
2022-12-08T17:46:08.595Z,99.11
2022-12-08T17:49:16.186Z,98.61
2022-12-08T17:52:19.956Z,98.75
2022-12-08T17:55:25.607Z,98.64
2022-12-08T17:58:32.099Z,98.53
2022-12-08T18:01:40.444Z,98.47
2022-12-08T18:04:44.209Z,98.53
2022-12-08T18:07:49.271Z,98.30
2022-12-08T18:10:54.118Z,98.17
2022-12-08T18:13:57.644Z,97.85
2022-12-08T18:17:02.036Z,97.26
2022-12-08T18:20:08.037Z,97.63
2022-12-08T18:23:11.899Z,97.50
2022-12-08T18:26:16.357Z,97.30
2022-12-08T18:29:20.712Z,96.92
2022-12-08T18:32:24.977Z,96.85
2022-12-08T18:35:29.457Z,96.71
2022-12-08T18:38:32.655Z,97.61
2022-12-08T18:41:35.883Z,97.29
2022-12-08T18:44:40.057Z,97.26
2022-12-08T18:47:43.589Z,97.05
2022-12-08T18:50:46.822Z,97.04
2022-12-08T19:05:23.916Z,97.45
2022-12-08T19:08:31.369Z,97.39
2022-12-08T19:11:34.849Z,97.23
2022-12-08T19:14:38.685Z,97.38
2022-12-08T19:17:45.124Z,97.03
2022-12-08T19:20:49.169Z,96.57
2022-12-08T19:23:56.679Z,96.39
2022-12-08T19:27:00.933Z,96.53
2022-12-08T19:30:05.559Z,96.00
2022-12-08T19:33:09.651Z,96.22
2022-12-08T19:36:21.773Z,96.27
2022-12-08T19:39:49.880Z,95.67
2022-12-08T19:43:17.316Z,95.93
2022-12-08T19:46:31.161Z,96.17
2022-12-08T19:49:37.935Z,96.15
2022-12-08T19:52:42.668Z,95.44
2022-12-08T19:56:41.836Z,96.13
2022-12-08T19:59:47.056Z,96.02
2022-12-08T20:02:54.618Z,95.48
2022-12-08T20:05:59.265Z,94.96
2022-12-08T20:09:05.068Z,94.70
2022-12-08T20:12:09.783Z,94.78
2022-12-08T20:15:16.624Z,94.66
2022-12-08T20:18:21.729Z,94.59
2022-12-08T20:21:25.742Z,94.21
2022-12-08T20:24:36.634Z,94.45
2022-12-08T20:27:55.819Z,95.22
2022-12-08T20:31:00.032Z,95.58
2022-12-08T20:34:04.241Z,95.86
2022-12-08T20:37:08.709Z,95.54
2022-12-08T20:40:12.580Z,95.75
2022-12-08T20:43:17.113Z,95.49
2022-12-08T20:46:25.827Z,95.42
2022-12-08T20:49:34.983Z,95.83
2022-12-08T20:52:39.903Z,95.70
2022-12-08T20:55:45.145Z,96.21
2022-12-08T20:58:50.368Z,95.93
2022-12-08T21:01:55.100Z,95.96
2022-12-08T21:04:58.386Z,95.57
2022-12-08T21:08:03.704Z,95.66
2022-12-08T21:11:08.828Z,96.59
2022-12-08T21:14:20.553Z,96.98
2022-12-08T21:17:28.576Z,97.41
2022-12-08T21:20:32.125Z,98.77
2022-12-08T21:26:54.820Z,98.60
2022-12-08T21:29:57.451Z,98.14
2022-12-08T21:33:01.381Z,97.17
2022-12-08T21:36:09.795Z,96.56
2022-12-08T21:39:13.343Z,96.76
2022-12-08T21:42:34.822Z,96.28
2022-12-08T21:45:40.655Z,96.28
2022-12-08T21:48:43.277Z,96.14
2022-12-08T21:51:47.509Z,96.36
2022-12-08T21:54:50.325Z,96.26
2022-12-08T21:57:53.438Z,96.15
2022-12-08T22:01:09.458Z,95.96
2022-12-08T22:05:21.016Z,96.36
2022-12-08T22:14:08.353Z,96.65
2022-12-08T23:15:25.706Z,100.00
2022-12-08T23:34:04.533Z,100.00
2022-12-08T23:37:36.199Z,100.00
2022-12-08T23:40:40.131Z,100.00
2022-12-08T23:43:51.332Z,100.00
2022-12-08T23:47:30.842Z,100.00
2022-12-08T23:54:55.111Z,100.00
2022-12-08T23:58:08.277Z,100.00
